createdAt,value
2019-02-22T00:02:31.182Z,101777.00
2019-02-22T00:04:59.086Z,101778.00
2019-02-22T00:07:27.047Z,101779.00
2019-02-22T00:09:54.986Z,101778.00
2019-02-22T00:12:26.219Z,101781.00
2019-02-22T00:14:54.179Z,101784.00
2019-02-22T00:17:22.319Z,101785.00
2019-02-22T00:19:50.331Z,101790.00
2019-02-22T00:22:18.350Z,101788.00
2019-02-22T00:24:46.231Z,101786.00
2019-02-22T00:27:14.351Z,101792.00
2019-02-22T00:29:42.540Z,101795.00
2019-02-22T00:32:10.494Z,101795.00
2019-02-22T00:34:38.540Z,101793.00
2019-02-22T00:37:06.490Z,101798.00
2019-02-22T00:39:37.442Z,101800.00
2019-02-22T00:42:05.446Z,101792.00
2019-02-22T00:44:33.435Z,101787.00
2019-02-22T00:47:01.458Z,101794.00
2019-02-22T00:49:29.359Z,101798.00
2019-02-22T00:51:57.361Z,101799.00
2019-02-22T00:54:25.272Z,101800.00
2019-02-22T00:56:53.298Z,101797.00
2019-02-22T00:59:21.346Z,101801.00
2019-02-22T01:01:49.219Z,101800.00
2019-02-22T01:04:17.175Z,101794.00
2019-02-22T01:06:45.081Z,101801.00
2019-02-22T01:09:12.989Z,101814.00
2019-02-22T01:11:40.918Z,101801.00
2019-02-22T01:14:08.826Z,101808.00
2019-02-22T01:16:36.797Z,101810.00
2019-02-22T01:19:04.757Z,101800.00
2019-02-22T01:21:32.790Z,101797.00
2019-02-22T01:24:00.772Z,101808.00
2019-02-22T01:26:28.731Z,101808.00
2019-02-22T01:28:56.798Z,101814.00
2019-02-22T01:31:24.746Z,101817.00
2019-02-22T01:33:54.180Z,101812.00
2019-02-22T01:36:22.404Z,101812.00
2019-02-22T01:38:50.480Z,101814.00
2019-02-22T01:41:18.429Z,101816.00
2019-02-22T01:43:46.377Z,101816.00
2019-02-22T01:46:15.350Z,101823.00
2019-02-22T01:48:43.326Z,101819.00
2019-02-22T01:51:11.245Z,101808.00
2019-02-22T01:53:39.122Z,101820.00
2019-02-22T01:56:06.973Z,101823.00
2019-02-22T01:58:34.848Z,101833.00
2019-02-22T02:01:02.763Z,101834.00
2019-02-22T02:03:30.962Z,101834.00
2019-02-22T02:05:58.915Z,101840.00
2019-02-22T02:08:26.886Z,101839.00
2019-02-22T02:10:54.786Z,101833.00
2019-02-22T02:13:22.851Z,101833.00
2019-02-22T02:15:52.207Z,101830.00
2019-02-22T02:18:20.187Z,101841.00
2019-02-22T02:20:48.144Z,101847.00
2019-02-22T02:23:16.128Z,101842.00
2019-02-22T02:25:44.125Z,101849.00
2019-02-22T02:28:12.060Z,101854.00
2019-02-22T02:30:39.960Z,101853.00
2019-02-22T02:33:12.719Z,101857.00
2019-02-22T02:35:40.648Z,101856.00
2019-02-22T02:38:08.572Z,101855.00
2019-02-22T02:40:36.502Z,101856.00
2019-02-22T02:43:04.498Z,101853.00
2019-02-22T02:45:32.396Z,101856.00
2019-02-22T02:48:00.363Z,101861.00
2019-02-22T02:50:28.220Z,101869.00
2019-02-22T02:52:56.131Z,101850.00
2019-02-22T02:55:30.154Z,101864.00
2019-02-22T02:57:58.064Z,101852.00
2019-02-22T03:00:26.094Z,101861.00
2019-02-22T03:02:53.917Z,101864.00
2019-02-22T03:05:27.965Z,101862.00
2019-02-22T03:07:56.399Z,101864.00
2019-02-22T03:10:24.298Z,101869.00
2019-02-22T03:12:52.236Z,101880.00
2019-02-22T03:15:20.137Z,101886.00
2019-02-22T03:17:48.011Z,101887.00
2019-02-22T03:20:15.926Z,101889.00
2019-02-22T03:22:43.823Z,101880.00
2019-02-22T03:25:11.774Z,101885.00
2019-02-22T03:27:39.648Z,101877.00
2019-02-22T03:30:07.800Z,101888.00
2019-02-22T03:32:35.839Z,101888.00
2019-02-22T03:35:04.115Z,101887.00
2019-02-22T03:37:32.022Z,101889.00
2019-02-22T03:39:59.910Z,101894.00
2019-02-22T03:42:27.851Z,101894.00
2019-02-22T03:44:55.695Z,101890.00
2019-02-22T03:47:23.537Z,101890.00
2019-02-22T03:49:51.464Z,101887.00
2019-02-22T03:52:29.501Z,101890.00
2019-02-22T03:54:57.406Z,101891.00
2019-02-22T03:57:25.340Z,101900.00
2019-02-22T03:59:53.366Z,101900.00
2019-02-22T04:02:21.300Z,101901.00
2019-02-22T04:04:49.206Z,101902.00
2019-02-22T04:07:17.120Z,101912.00
2019-02-22T04:09:46.111Z,101911.00
2019-02-22T04:12:14.003Z,101916.00
2019-02-22T04:14:41.944Z,101907.00
2019-02-22T04:17:11.498Z,101912.00
2019-02-22T04:19:39.835Z,101906.00
2019-02-22T04:22:07.674Z,101908.00
2019-02-22T04:24:36.582Z,101910.00
2019-02-22T04:27:04.455Z,101915.00
2019-02-22T04:29:32.337Z,101923.00
2019-02-22T04:32:00.290Z,101915.00
2019-02-22T04:34:28.210Z,101914.00
2019-02-22T04:36:56.138Z,101923.00
2019-02-22T04:39:24.120Z,101914.00
2019-02-22T04:41:58.157Z,101918.00
2019-02-22T04:44:22.041Z,101900.00
2019-02-22T04:46:50.010Z,101910.00
2019-02-22T04:49:17.959Z,101910.00
2019-02-22T04:51:45.983Z,101907.00
2019-02-22T04:54:14.992Z,101910.00
2019-02-22T04:56:43.067Z,101910.00
2019-02-22T04:59:11.453Z,101917.00
2019-02-22T05:01:39.470Z,101915.00
2019-02-22T05:04:07.490Z,101925.00
2019-02-22T05:06:35.442Z,101934.00
2019-02-22T05:09:04.115Z,101931.00
2019-02-22T05:11:33.156Z,101928.00
2019-02-22T05:14:01.099Z,101944.00
2019-02-22T05:16:29.060Z,101950.00
2019-02-22T05:18:56.996Z,101945.00
2019-02-22T05:21:25.018Z,101946.00
2019-02-22T05:23:52.978Z,101945.00
2019-02-22T05:26:20.943Z,101954.00
2019-02-22T05:28:48.856Z,101964.00
2019-02-22T05:31:16.866Z,101960.00
2019-02-22T05:33:44.749Z,101967.00
2019-02-22T05:36:12.788Z,101977.00
2019-02-22T05:38:40.968Z,101984.00
2019-02-22T05:41:09.086Z,101990.00
2019-02-22T05:43:37.056Z,101986.00
2019-02-22T05:46:04.996Z,101982.00
2019-02-22T05:48:33.018Z,101988.00
2019-02-22T05:51:01.048Z,101992.00
2019-02-22T05:53:28.955Z,101994.00
2019-02-22T05:55:56.947Z,101996.00
2019-02-22T05:58:24.942Z,102002.00
2019-02-22T06:00:52.988Z,101997.00
2019-02-22T06:03:20.983Z,102012.00
2019-02-22T06:05:48.917Z,102007.00
2019-02-22T06:08:17.520Z,101997.00
2019-02-22T06:10:45.852Z,102006.00
2019-02-22T06:13:13.815Z,102006.00
2019-02-22T06:15:41.861Z,102007.00
2019-02-22T06:18:09.840Z,102018.00
2019-02-22T06:20:37.801Z,102018.00
2019-02-22T06:23:05.767Z,102013.00
2019-02-22T06:25:33.699Z,102044.00
2019-02-22T06:28:01.664Z,102025.00
2019-02-22T06:30:29.621Z,102041.00
2019-02-22T06:32:57.557Z,102037.00
2019-02-22T06:35:25.541Z,102031.00
2019-02-22T06:37:53.706Z,102028.00
2019-02-22T06:40:21.802Z,102037.00
2019-02-22T06:42:49.791Z,102032.00
2019-02-22T06:45:17.739Z,102044.00
2019-02-22T06:47:45.777Z,102038.00
2019-02-22T06:50:13.795Z,102052.00
2019-02-22T06:52:41.785Z,102055.00
2019-02-22T06:55:09.755Z,102056.00
2019-02-22T06:57:37.731Z,102057.00
2019-02-22T07:00:07.097Z,102048.00
2019-02-22T07:02:35.328Z,102052.00
2019-02-22T07:05:10.613Z,102055.00
2019-02-22T07:07:38.627Z,102063.00
2019-02-22T07:10:07.781Z,102063.00
2019-02-22T07:12:56.201Z,102065.00
2019-02-22T07:15:17.664Z,102073.00
2019-02-22T07:17:45.811Z,102076.00
2019-02-22T07:20:13.988Z,102083.00
2019-02-22T07:22:42.574Z,102084.00
2019-02-22T07:25:10.748Z,102097.00
2019-02-22T07:27:38.770Z,102114.00
2019-02-22T07:30:09.446Z,102104.00
2019-02-22T07:32:37.625Z,102105.00
2019-02-22T07:35:05.956Z,102115.00
2019-02-22T07:37:33.978Z,102105.00
2019-02-22T07:40:02.150Z,102110.00
2019-02-22T07:42:30.230Z,102112.00
2019-02-22T07:44:58.242Z,102130.00
2019-02-22T07:47:29.179Z,102129.00
2019-02-22T07:49:56.553Z,102122.00
2019-02-22T07:52:24.687Z,102136.00
2019-02-22T07:54:52.662Z,102141.00
2019-02-22T07:57:20.657Z,102147.00
2019-02-22T07:59:51.758Z,102153.00
2019-02-22T08:02:19.828Z,102153.00
2019-02-22T08:04:47.848Z,102155.00
2019-02-22T08:07:15.958Z,102138.00
2019-02-22T08:09:43.940Z,102142.00
2019-02-22T08:12:11.983Z,102146.00
2019-02-22T08:14:40.847Z,102153.00
2019-02-22T08:17:08.907Z,102156.00
2019-02-22T08:19:36.885Z,102163.00
2019-02-22T08:22:04.878Z,102169.00
2019-02-22T08:24:32.843Z,102174.00
2019-02-22T08:27:00.945Z,102181.00
2019-02-22T08:29:29.153Z,102181.00
2019-02-22T08:31:57.475Z,102186.00
2019-02-22T08:34:25.512Z,102193.00
2019-02-22T08:36:53.679Z,102193.00
2019-02-22T08:39:22.841Z,102191.00
2019-02-22T08:41:50.823Z,102199.00
2019-02-22T08:44:19.018Z,102193.00
2019-02-22T08:46:47.099Z,102204.00
2019-02-22T08:49:15.079Z,102202.00
2019-02-22T08:51:43.009Z,102217.00
2019-02-22T08:54:11.503Z,102204.00
2019-02-22T08:56:40.676Z,102209.00
2019-02-22T08:59:08.885Z,102207.00
2019-02-22T09:01:36.872Z,102208.00
2019-02-22T09:04:05.022Z,102200.00
2019-02-22T09:06:33.010Z,102194.00
2019-02-22T09:09:01.215Z,102215.00
2019-02-22T09:11:31.498Z,102216.00
2019-02-22T09:13:59.804Z,102211.00
2019-02-22T09:16:27.721Z,102221.00
2019-02-22T09:18:55.757Z,102221.00
2019-02-22T09:21:23.805Z,102225.00
2019-02-22T09:23:51.736Z,102225.00
2019-02-22T09:26:19.774Z,102229.00
2019-02-22T09:28:47.906Z,102219.00
2019-02-22T09:31:15.880Z,102220.00
2019-02-22T09:33:43.973Z,102238.00
2019-02-22T09:36:11.912Z,102232.00
2019-02-22T09:38:39.910Z,102230.00
2019-02-22T09:41:08.462Z,102236.00
2019-02-22T09:43:36.473Z,102230.00
2019-02-22T09:46:04.432Z,102233.00
2019-02-22T09:48:33.549Z,102236.00
2019-02-22T09:51:01.894Z,102235.00
2019-02-22T09:53:30.888Z,102243.00
2019-02-22T09:55:59.046Z,102251.00
2019-02-22T09:58:28.082Z,102250.00
2019-02-22T10:00:56.230Z,102254.00
2019-02-22T10:03:24.228Z,102249.00
2019-02-22T10:05:52.289Z,102240.00
2019-02-22T10:08:20.322Z,102239.00
2019-02-22T10:10:48.415Z,102240.00
2019-02-22T10:13:16.586Z,102248.00
2019-02-22T10:15:44.482Z,102242.00
2019-02-22T10:18:12.450Z,102247.00
2019-02-22T10:20:40.399Z,102215.00
2019-02-22T10:23:08.355Z,102265.00
2019-02-22T10:25:36.362Z,102260.00
2019-02-22T10:28:04.422Z,102269.00
2019-02-22T10:30:33.383Z,102265.00
2019-02-22T10:33:01.780Z,102274.00
2019-02-22T10:35:30.000Z,102267.00
2019-02-22T10:37:58.356Z,102277.00
2019-02-22T10:40:26.513Z,102278.00
2019-02-22T10:42:54.503Z,102272.00
2019-02-22T10:45:22.544Z,102279.00
2019-02-22T10:47:50.693Z,102282.00
2019-02-22T10:50:18.918Z,102289.00
2019-02-22T10:52:47.071Z,102298.00
2019-02-22T10:55:15.236Z,102298.00
2019-02-22T10:57:44.994Z,102308.00
2019-02-22T11:00:13.161Z,102303.00
2019-02-22T11:02:41.631Z,102314.00
2019-02-22T11:05:10.500Z,102302.00
2019-02-22T11:07:42.680Z,102309.00
2019-02-22T11:10:10.823Z,102308.00
2019-02-22T11:12:38.916Z,102320.00
2019-02-22T11:15:08.507Z,102307.00
2019-02-22T11:17:36.800Z,102311.00
2019-02-22T11:20:05.620Z,102314.00
2019-02-22T11:22:33.636Z,102311.00
2019-02-22T11:25:01.756Z,102313.00
2019-02-22T11:27:29.952Z,102314.00
2019-02-22T11:29:59.203Z,102316.00
2019-02-22T11:32:27.201Z,102314.00
2019-02-22T11:34:55.259Z,102319.00
2019-02-22T11:37:23.272Z,102320.00
2019-02-22T11:39:51.483Z,102320.00
2019-02-22T11:42:19.616Z,102332.00
2019-02-22T11:44:47.716Z,102331.00
2019-02-22T11:47:15.764Z,102327.00
2019-02-22T11:49:44.409Z,102323.00
2019-02-22T11:52:12.371Z,102334.00
2019-02-22T11:54:40.515Z,102326.00
2019-02-22T11:57:10.147Z,102338.00
2019-02-22T11:59:38.313Z,102335.00
2019-02-22T12:02:06.446Z,102337.00
2019-02-22T12:04:34.779Z,102346.00
2019-02-22T12:07:03.608Z,102336.00
2019-02-22T12:09:32.598Z,102335.00
2019-02-22T12:12:00.797Z,102352.00
2019-02-22T12:14:30.185Z,102355.00
2019-02-22T12:16:58.367Z,102355.00
2019-02-22T12:19:27.944Z,102356.00
2019-02-22T12:21:55.910Z,102354.00
2019-02-22T12:24:24.785Z,102359.00
2019-02-22T12:26:53.121Z,102362.00
2019-02-22T12:29:21.375Z,102357.00
2019-02-22T12:31:49.548Z,102351.00
2019-02-22T12:34:19.375Z,102359.00
2019-02-22T12:36:50.148Z,102356.00
2019-02-22T12:39:18.859Z,102358.00
2019-02-22T12:41:47.075Z,102374.00
2019-02-22T12:44:15.179Z,102374.00
2019-02-22T12:46:43.254Z,102383.00
2019-02-22T12:49:11.597Z,102386.00
2019-02-22T12:51:39.580Z,102378.00
2019-02-22T12:54:07.751Z,102386.00
2019-02-22T12:59:05.852Z,102374.00
2019-02-22T13:01:33.926Z,102383.00
2019-02-22T13:04:02.112Z,102384.00
2019-02-22T13:06:30.036Z,102391.00
2019-02-22T13:08:58.136Z,102389.00
2019-02-22T13:11:26.158Z,102393.00
2019-02-22T13:13:54.381Z,102392.00
2019-02-22T13:16:22.459Z,102394.00
2019-02-22T13:18:50.553Z,102395.00
2019-02-22T13:21:18.807Z,102395.00
2019-02-22T13:23:47.043Z,102406.00
2019-02-22T13:29:05.481Z,102410.00
2019-02-22T13:35:05.404Z,102412.00
2019-02-22T13:37:50.302Z,102410.00
2019-02-22T13:40:31.510Z,102426.00
2019-02-22T13:43:19.452Z,102294.00
2019-02-22T13:46:06.900Z,102408.00
2019-02-22T13:48:36.013Z,102391.00
2019-02-22T13:51:04.907Z,102395.00
2019-02-22T13:53:45.720Z,102440.00
2019-02-22T13:56:29.888Z,102430.00
2019-02-22T13:59:17.084Z,102497.00
2019-02-22T14:01:57.768Z,102394.00
2019-02-22T14:04:45.191Z,102283.00
2019-02-22T14:07:25.902Z,102291.00
2019-02-22T14:10:13.384Z,102453.00
2019-02-22T14:12:41.541Z,102417.00
2019-02-22T14:15:37.580Z,102246.00
2019-02-22T14:17:59.017Z,102417.00
2019-02-22T14:20:27.166Z,102429.00
2019-02-22T14:23:08.151Z,102423.00
2019-02-22T14:25:36.177Z,102426.00
2019-02-22T14:28:04.186Z,102429.00
2019-02-22T14:30:32.187Z,102427.00
2019-02-22T14:33:19.610Z,102441.00
2019-02-22T14:35:47.635Z,102445.00
2019-02-22T14:38:15.603Z,102441.00
2019-02-22T14:40:43.723Z,102442.00
2019-02-22T14:43:16.557Z,102435.00
2019-02-22T14:45:50.836Z,102437.00
2019-02-22T14:48:48.398Z,102444.00
2019-02-22T14:51:28.919Z,102185.00
2019-02-22T14:53:56.881Z,102439.00
2019-02-22T14:56:38.178Z,102442.00
2019-02-22T14:59:25.618Z,102243.00
2019-02-22T15:01:53.550Z,102437.00
2019-02-22T15:04:22.494Z,102438.00
2019-02-22T15:06:50.650Z,102439.00
2019-02-22T15:09:38.610Z,102436.00
2019-02-22T15:12:20.898Z,102443.00
2019-02-22T15:15:09.230Z,102453.00
2019-02-22T15:17:55.602Z,102333.00
2019-02-22T15:20:43.521Z,102457.00
2019-02-22T15:23:11.598Z,102460.00
2019-02-22T15:25:39.758Z,102460.00
2019-02-22T15:28:07.734Z,102462.00
2019-02-22T15:30:35.793Z,102460.00
2019-02-22T15:33:17.346Z,102474.00
2019-02-22T15:36:05.800Z,102472.00
2019-02-22T15:38:46.882Z,102332.00
2019-02-22T15:41:34.577Z,102295.00
2019-02-22T15:44:15.281Z,102340.00
2019-02-22T15:47:11.375Z,102305.00
2019-02-22T15:50:07.648Z,102468.00
2019-02-22T15:52:36.141Z,102473.00
2019-02-22T15:55:16.575Z,102250.00
2019-02-22T15:58:04.866Z,102466.00
2019-02-22T16:00:45.361Z,102361.00
2019-02-22T16:03:52.747Z,102522.00
2019-02-22T16:06:32.928Z,102456.00
2019-02-22T16:09:21.661Z,102269.00
2019-02-22T16:12:02.521Z,102462.00
2019-02-22T16:14:51.668Z,102457.00
2019-02-22T16:17:32.474Z,102271.00
2019-02-22T16:20:20.136Z,102254.00
2019-02-22T16:23:02.877Z,102274.00
2019-02-22T16:25:34.097Z,102448.00
2019-02-22T16:28:02.927Z,102453.00
2019-02-22T16:30:51.547Z,102334.00
2019-02-22T16:33:38.679Z,102441.00
2019-02-22T16:36:06.750Z,102439.00
2019-02-22T16:38:54.187Z,102436.00
2019-02-22T16:41:22.216Z,102442.00
2019-02-22T16:43:50.255Z,102445.00
2019-02-22T16:46:18.288Z,102444.00
2019-02-22T16:48:46.252Z,102447.00
2019-02-22T16:51:27.274Z,102443.00
2019-02-22T16:54:08.634Z,102335.00
2019-02-22T16:56:56.069Z,102447.00
2019-02-22T16:59:36.301Z,102449.00
2019-02-22T17:02:17.550Z,102454.00
2019-02-22T17:04:45.595Z,102454.00
2019-02-22T17:07:27.494Z,102517.00
2019-02-22T17:09:57.419Z,102461.00
2019-02-22T17:12:39.038Z,102567.00
2019-02-22T17:15:26.837Z,102228.00
2019-02-22T17:20:51.168Z,102465.00
2019-02-22T17:23:19.443Z,102473.00
2019-02-22T17:26:03.082Z,102484.00
2019-02-22T17:28:50.651Z,102468.00
2019-02-22T17:31:32.256Z,102476.00
2019-02-22T17:34:19.950Z,102469.00
2019-02-22T17:37:00.669Z,102466.00
2019-02-22T17:39:48.252Z,102479.00
2019-02-22T17:42:16.509Z,102473.00
2019-02-22T17:51:13.544Z,102478.00
2019-02-22T17:53:41.735Z,102488.00
2019-02-22T17:56:22.965Z,102225.00
2019-02-22T17:59:10.781Z,102488.00
2019-02-22T18:01:52.244Z,102260.00
2019-02-22T18:04:39.824Z,102474.00
2019-02-22T18:07:20.161Z,102333.00
2019-02-22T18:10:08.804Z,102600.00
2019-02-22T18:12:49.341Z,102308.00
2019-02-22T18:15:36.999Z,102558.00
2019-02-22T18:18:18.152Z,102362.00
2019-02-22T18:21:05.670Z,102586.00
2019-02-22T18:23:33.789Z,102503.00
2019-02-22T18:26:01.998Z,102505.00
2019-02-22T18:28:49.699Z,102317.00
2019-02-22T18:31:30.665Z,102518.00
2019-02-22T18:33:58.743Z,102515.00
2019-02-22T18:36:39.330Z,102514.00
2019-02-22T18:39:27.191Z,102521.00
2019-02-22T18:41:55.682Z,102517.00
2019-02-22T18:44:43.301Z,102520.00
2019-02-22T18:47:24.263Z,102520.00
2019-02-22T18:49:53.044Z,102521.00
2019-02-22T18:52:37.518Z,102561.00
2019-02-22T18:55:26.239Z,102517.00
2019-02-22T18:58:07.134Z,102596.00
2019-02-22T19:03:47.240Z,102350.00
2019-02-22T19:06:17.626Z,102533.00
2019-02-22T19:09:05.871Z,102531.00
2019-02-22T19:11:49.272Z,102431.00
2019-02-22T19:14:36.795Z,102544.00
2019-02-22T19:17:18.593Z,102364.00
2019-02-22T19:20:08.487Z,102429.00
2019-02-22T19:22:57.166Z,102430.00
2019-02-22T19:25:44.648Z,102381.00
2019-02-22T19:28:12.803Z,102563.00
2019-02-22T19:31:00.821Z,102561.00
2019-02-22T19:33:42.533Z,102612.00
2019-02-22T19:36:30.097Z,102388.00
2019-02-22T19:39:10.991Z,102609.00
2019-02-22T19:41:39.325Z,102577.00
2019-02-22T19:44:07.436Z,102587.00
2019-02-22T19:46:36.058Z,102579.00
2019-02-22T19:58:31.984Z,102600.00
2019-02-22T20:01:00.891Z,102586.00
2019-02-22T20:03:29.873Z,102549.00
2019-02-22T20:05:58.571Z,102600.00
2019-02-22T20:08:26.920Z,102599.00
2019-02-22T20:11:14.646Z,102296.00
2019-02-22T20:13:43.076Z,102611.00
2019-02-22T20:16:30.778Z,102708.00
2019-02-22T20:19:13.052Z,102614.00
2019-02-22T20:21:54.077Z,102602.00
2019-02-22T20:24:23.525Z,102609.00
2019-02-22T20:26:51.580Z,102610.00
2019-02-22T20:29:21.655Z,102606.00
2019-02-22T20:31:49.865Z,102618.00
2019-02-22T20:34:17.934Z,102613.00
2019-02-22T20:36:59.102Z,102737.00
2019-02-22T20:39:47.561Z,102437.00
2019-02-22T20:42:15.867Z,102622.00
2019-02-22T20:44:44.076Z,102620.00
2019-02-22T20:47:25.990Z,102629.00
2019-02-22T20:50:14.480Z,102626.00
2019-02-22T20:52:55.136Z,102635.00
2019-02-22T20:55:23.135Z,102632.00
2019-02-22T20:57:51.261Z,102638.00
2019-02-22T21:00:39.059Z,102495.00
2019-02-22T21:03:24.138Z,102640.00
2019-02-22T21:05:52.425Z,102649.00
2019-02-22T21:08:20.603Z,102642.00
2019-02-22T21:11:08.681Z,102646.00
2019-02-22T21:13:36.908Z,102645.00
2019-02-22T21:16:24.400Z,102659.00
2019-02-22T21:19:05.249Z,102668.00
2019-02-22T21:21:47.406Z,102437.00
2019-02-22T21:24:34.959Z,102703.00
2019-02-22T21:27:15.656Z,102467.00
2019-02-22T21:29:43.890Z,102661.00
2019-02-22T21:32:31.607Z,102666.00
2019-02-22T21:35:12.547Z,102663.00
2019-02-22T21:38:02.160Z,102691.00
2019-02-22T21:40:42.685Z,102658.00
2019-02-22T21:43:11.037Z,102650.00
2019-02-22T21:45:51.845Z,102647.00
2019-02-22T21:48:27.245Z,102656.00
2019-02-22T21:51:09.712Z,102655.00
2019-02-22T21:53:57.263Z,102710.00
2019-02-22T21:56:25.487Z,102652.00
2019-02-22T21:59:13.010Z,102721.00
2019-02-22T22:01:41.054Z,102645.00
2019-02-22T22:04:21.912Z,102419.00
2019-02-22T22:07:09.493Z,102470.00
2019-02-22T22:09:50.183Z,102597.00
2019-02-22T22:12:37.678Z,102453.00
2019-02-22T22:15:18.387Z,102695.00
2019-02-22T22:17:58.500Z,102377.00
2019-02-22T22:20:26.473Z,102649.00
2019-02-22T22:22:56.776Z,102647.00
2019-02-22T22:25:37.564Z,102643.00
2019-02-22T22:28:05.769Z,102600.00
2019-02-22T22:30:33.981Z,102663.00
2019-02-22T22:33:02.122Z,102651.00
2019-02-22T22:35:30.325Z,102651.00
2019-02-22T22:37:58.315Z,102666.00
2019-02-22T22:40:26.346Z,102667.00
2019-02-22T22:42:54.427Z,102670.00
2019-02-22T22:45:35.302Z,102673.00
2019-02-22T22:48:23.060Z,102472.00
2019-02-22T22:50:54.476Z,102683.00
2019-02-22T22:53:22.787Z,102680.00
2019-02-22T22:55:50.905Z,102678.00
2019-02-22T22:58:18.956Z,102696.00
2019-02-22T23:01:05.876Z,102688.00
2019-02-22T23:03:36.911Z,102702.00
2019-02-22T23:06:17.690Z,102700.00
2019-02-22T23:08:45.977Z,102697.00
2019-02-22T23:11:33.377Z,102694.00
2019-02-22T23:14:14.673Z,102694.00
2019-02-22T23:16:42.864Z,102704.00
2019-02-22T23:19:30.440Z,102369.00
2019-02-22T23:22:18.188Z,102710.00
2019-02-22T23:24:58.537Z,102763.00
2019-02-22T23:27:46.132Z,102706.00
2019-02-22T23:30:26.840Z,102506.00
2019-02-22T23:33:14.363Z,102826.00
2019-02-22T23:35:42.519Z,102726.00
2019-02-22T23:38:30.278Z,102746.00
2019-02-22T23:41:11.152Z,102722.00
2019-02-22T23:43:58.619Z,102740.00
2019-02-22T23:46:40.286Z,102498.00
2019-02-22T23:49:27.721Z,102676.00
2019-02-22T23:52:08.533Z,102523.00
2019-02-22T23:54:36.520Z,102739.00
2019-02-22T23:57:18.615Z,102497.00
2019-02-22T23:59:46.860Z,102747.00
